Time;durP1;ratioP1;P1;durP2;ratioP2;P2;SDS_P1;SDS_P2;PMS_P1;PMS_P2;Temp;Humidity;BMP_temperature;BMP_pressure;BME280_temperature;BME280_humidity;BME280_pressure;Samples;Min_cycle;Max_cycle;Signal;HPM_P1;HPM_P2
2021/12/16 00:08:39;;;;;;;25.77;18.10;;;;;;;0.54;100.00;101738.42;1725391;82;21082;-77
2021/12/16 00:19:20;;;;;;;29.02;19.67;;;;;;;0.52;100.00;101747.01;1722714;83;21348;-77
2021/12/16 00:30:39;;;;;;;34.35;22.17;;;;;;;0.40;100.00;101745.02;1640610;85;21089;-81
2021/12/16 00:33:09;;;;;;;33.58;20.27;;;;;;;0.38;100.00;101749.35;1668433;84;21042;-80
2021/12/16 00:35:17;;;;;;;29.48;18.12;;;;;;;0.36;100.00;101754.09;1668176;85;21038;-79
2021/12/16 00:37:48;;;;;;;32.65;20.27;;;;;;;0.38;100.00;101749.77;1663692;84;21824;-84
2021/12/16 00:40:17;;;;;;;32.40;21.42;;;;;;;0.38;100.00;101750.63;1676650;84;21085;-81
2021/12/16 00:42:51;;;;;;;33.48;21.85;;;;;;;0.41;100.00;101751.02;1674180;85;21606;-81
2021/12/16 00:45:33;;;;;;;36.03;22.62;;;;;;;0.44;100.00;101751.81;1673492;84;21090;-80
2021/12/16 00:48:07;;;;;;;38.63;22.98;;;;;;;0.45;100.00;101755.21;1643165;85;21022;-80
2021/12/16 00:55:55;;;;;;;40.88;23.18;;;;;;;0.42;100.00;101741.19;1653704;83;21041;-78
2021/12/16 00:58:23;;;;;;;40.73;23.35;;;;;;;0.40;100.00;101737.78;1678724;83;21100;-78
2021/12/16 01:01:04;;;;;;;41.23;23.27;;;;;;;0.42;100.00;101741.19;1716477;83;21053;-77
2021/12/16 01:03:36;;;;;;;42.83;24.85;;;;;;;0.43;100.00;101741.59;1711259;83;21152;-77
2021/12/16 01:35:08;;;;;;;48.73;27.77;;;;;;;0.33;100.00;101737.47;1735294;81;21039;-77
2021/12/16 01:46:07;;;;;;;47.03;24.57;;;;;;;0.29;100.00;101758.44;1683553;83;21015;-78
2021/12/16 01:49:02;;;;;;;52.20;29.10;;;;;;;0.25;100.00;101760.20;1708888;83;21089;-79
2021/12/16 01:50:55;;;;;;;51.98;26.82;;;;;;;0.25;100.00;101767.02;1708007;83;21066;-78
2021/12/16 01:56:40;;;;;;;52.35;28.00;;;;;;;0.23;100.00;101774.74;1712103;83;21070;-80
2021/12/16 01:58:37;;;;;;;52.10;27.52;;;;;;;0.21;100.00;101776.47;1706555;83;21183;-81
2021/12/16 02:01:18;;;;;;;49.15;25.97;;;;;;;0.21;100.00;101767.95;1712321;83;21528;-81
2021/12/16 02:03:55;;;;;;;55.03;27.85;;;;;;;0.20;100.00;101777.33;1706185;83;21038;-78
2021/12/16 02:09:22;;;;;;;49.53;27.13;;;;;;;0.26;100.00;101763.19;1709732;83;21125;-79
2021/12/16 02:12:00;;;;;;;;;;;;;;;0.28;100.00;101770.39;1683081;83;21183;-78
2021/12/16 02:28:35;;;;;;;55.75;28.60;;;;;;;0.23;100.00;101751.68;1684212;83;21015;-79
2021/12/16 02:36:23;;;;;;;56.98;28.12;;;;;;;0.33;100.00;101757.97;1690654;83;21106;-77
2021/12/16 02:38:46;;;;;;;;;;;;;;;0.33;100.00;101757.52;1716034;83;21034;-78
2021/12/16 02:41:15;;;;;;;55.45;28.50;;;;;;;0.33;100.00;101752.39;1717046;83;20149;-77
2021/12/16 02:49:09;;;;;;;52.70;27.48;;;;;;;0.33;100.00;101732.34;1717408;83;21097;-79
2021/12/16 02:51:36;;;;;;;51.33;27.98;;;;;;;0.31;100.00;101728.53;1717403;83;21145;-78
2021/12/16 02:54:06;;;;;;;48.58;27.05;;;;;;;0.29;100.00;101733.66;1717756;83;21011;-77
2021/12/16 02:56:36;;;;;;;59.05;30.10;;;;;;;0.29;100.00;101728.53;1690727;83;21076;-78
2021/12/16 02:59:04;;;;;;;53.68;28.42;;;;;;;0.34;100.00;101725.07;1717491;83;21128;-78
2021/12/16 03:01:37;;;;;;;53.50;29.25;;;;;;;0.35;100.00;101726.32;1691519;83;21058;-79
2021/12/16 03:04:11;;;;;;;50.98;27.67;;;;;;;0.32;100.00;101728.95;1717781;83;21813;-80
2021/12/16 03:06:46;;;;;;;56.15;29.57;;;;;;;0.33;100.00;101733.62;1714193;83;21018;-78
2021/12/16 03:09:19;;;;;;;51.15;26.77;;;;;;;0.33;100.00;101736.19;1691018;83;21058;-78
2021/12/16 03:12:27;;;;;;;57.48;29.23;;;;;;;0.35;100.00;101734.01;1714517;83;21089;-80
2021/12/16 03:14:27;;;;;;;48.87;28.07;;;;;;;0.35;100.00;101730.61;1713905;83;21104;-79
2021/12/16 03:19:41;;;;;;;54.03;28.27;;;;;;;0.35;100.00;101748.55;1717730;83;21070;-78
2021/12/16 03:21:58;;;;;;;49.08;26.77;;;;;;;0.34;100.00;101742.56;1714073;83;21038;-80
2021/12/16 03:32:59;;;;;;;49.27;26.17;;;;;;;0.43;100.00;101742.43;1685958;85;21075;-78
2021/12/16 03:35:32;;;;;;;51.05;26.60;;;;;;;0.49;100.00;101740.22;1719424;80;21471;-78
2021/12/16 03:38:08;;;;;;;43.25;23.70;;;;;;;0.51;100.00;101742.75;1769561;81;21121;-78
2021/12/16 03:40:37;;;;;;;47.23;26.50;;;;;;;0.52;100.00;101740.60;1769327;80;21015;-78
2021/12/16 03:43:15;;;;;;;44.30;24.30;;;;;;;0.54;100.00;101744.00;1769718;80;21906;-79
2021/12/16 03:49:17;;;;;;;53.05;27.45;;;;;;;0.54;100.00;101747.84;1741793;81;21054;-79
2021/12/16 03:51:53;;;;;;;43.30;24.87;;;;;;;0.51;100.00;101752.58;1766198;80;21077;-78
2021/12/16 03:54:29;;;;;;;48.38;25.77;;;;;;;0.48;100.00;101750.50;1741791;81;21061;-78
2021/12/16 03:57:04;;;;;;;45.52;25.75;;;;;;;0.45;100.00;101753.93;1762975;81;21627;-79
2021/12/16 03:59:34;;;;;;;43.63;24.57;;;;;;;0.44;100.00;101767.64;1769231;80;21054;-79
2021/12/16 04:02:14;;;;;;;45.00;23.92;;;;;;;0.43;100.00;101771.07;1769386;81;21486;-78
2021/12/16 04:04:44;;;;;;;42.60;23.40;;;;;;;0.41;100.00;101771.52;1769578;80;21067;-79
2021/12/16 04:07:12;;;;;;;48.83;23.67;;;;;;;0.39;100.00;101763.00;1769940;81;21014;-79
2021/12/16 04:09:52;;;;;;;43.28;24.05;;;;;;;0.40;100.00;101765.98;1665101;85;21134;-80
2021/12/16 04:12:24;;;;;;;52.20;27.10;;;;;;;0.40;100.00;101763.41;1765884;81;21033;-80
2021/12/16 04:14:56;;;;;;;48.08;26.37;;;;;;;0.44;100.00;101772.32;1770186;81;21050;-79
2021/12/16 04:17:30;;;;;;;50.55;26.87;;;;;;;0.45;100.00;101782.98;1767385;80;21010;-78
2021/12/16 04:20:07;;;;;;;48.98;26.05;;;;;;;0.40;100.00;101782.19;1769622;80;21038;-80
2021/12/16 04:22:42;;;;;;;49.30;24.15;;;;;;;0.38;100.00;101784.36;1769612;80;21190;-79
2021/12/16 04:25:13;;;;;;;47.05;22.90;;;;;;;0.39;100.00;101784.78;1769655;80;21002;-77
2021/12/16 04:27:43;;;;;;;42.17;23.70;;;;;;;0.41;100.00;101785.17;1770039;80;21062;-80
2021/12/16 04:30:14;;;;;;;52.45;27.52;;;;;;;0.47;100.00;101789.36;1768753;80;21015;-79
2021/12/16 04:32:42;;;;;;;;;;;;;;;0.45;100.00;101787.25;1775116;80;21120;-80
2021/12/16 04:35:12;;;;;;;41.23;21.42;;;;;;;0.45;100.00;101789.81;1772710;80;21152;-78
2021/12/16 04:37:39;;;;;;;52.95;26.15;;;;;;;0.42;100.00;101783.47;1772598;80;21574;-78
2021/12/16 04:40:11;;;;;;;51.65;26.40;;;;;;;0.43;100.00;101787.28;1767495;80;21165;-78
2021/12/16 04:42:42;;;;;;;46.30;25.48;;;;;;;0.38;100.00;101789.08;1757854;80;21634;-79
2021/12/16 04:45:14;;;;;;;;;;;;;;;0.34;100.00;101789.13;1742849;80;21145;-78
2021/12/16 04:47:42;;;;;;;;;;;;;;;0.31;100.00;101794.70;1693453;81;21882;-79
2021/12/16 04:50:13;;;;;;;48.85;23.35;;;;;;;0.30;100.00;101777.62;1725826;83;20170;-80
2021/12/16 04:52:42;;;;;;;49.83;25.57;;;;;;;0.42;100.00;101771.94;1737708;80;27062;-79
2021/12/16 04:55:14;;;;;;;57.30;26.40;;;;;;;0.61;100.00;101769.50;1772886;80;21038;-80
2021/12/16 04:57:42;;;;;;;59.70;28.47;;;;;;;0.72;100.00;101770.61;1771924;80;21022;-79
2021/12/16 05:00:14;;;;;;;90.97;31.75;;;;;;;0.73;100.00;101771.48;1771909;80;21168;-79
2021/12/16 05:02:45;;;;;;;58.90;29.45;;;;;;;0.74;100.00;101768.05;1772339;80;21188;-81
2021/12/16 05:05:31;;;;;;;58.65;30.00;;;;;;;0.89;100.00;101767.80;1759478;80;21021;-81
2021/12/16 05:08:01;;;;;;;60.00;28.77;;;;;;;0.82;100.00;101761.08;1755372;80;21135;-81
2021/12/16 05:10:32;;;;;;;53.52;28.30;;;;;;;0.82;100.00;101752.52;1701238;82;21188;-79
2021/12/16 05:13:06;;;;;;;53.73;28.23;;;;;;;0.92;100.00;101749.78;1725057;80;21666;-79
2021/12/16 05:15:38;;;;;;;53.63;28.12;;;;;;;1.00;100.00;101759.09;1725108;82;21485;-79
2021/12/16 05:18:10;;;;;;;54.08;27.07;;;;;;;0.96;100.00;101758.30;1721856;80;21637;-78
2021/12/16 05:20:46;;;;;;;57.23;28.50;;;;;;;0.89;100.00;101752.83;1746838;80;21085;-80
2021/12/16 05:28:43;;;;;;;62.60;31.12;;;;;;;0.91;100.00;101751.09;1772911;80;21010;-79
2021/12/16 05:31:13;;;;;;;53.05;28.55;;;;;;;1.01;100.00;101753.92;1746228;80;21050;-79
2021/12/16 05:33:46;;;;;;;54.83;29.50;;;;;;;1.03;100.00;101755.17;1709292;83;21022;-80
2021/12/16 05:36:15;;;;;;;60.23;32.03;;;;;;;0.97;100.00;101751.44;1693868;81;21006;-79
2021/12/16 05:38:44;;;;;;;64.58;32.23;;;;;;;0.93;100.00;101751.48;1730750;81;21519;-79
2021/12/16 05:41:16;;;;;;;63.85;29.87;;;;;;;0.92;100.00;101747.66;1742451;81;21056;-79
2021/12/16 05:43:45;;;;;;;55.67;29.85;;;;;;;0.88;100.00;101752.00;1735160;81;21068;-78
2021/12/16 05:46:14;;;;;;;52.67;29.25;;;;;;;0.91;100.00;101753.25;1719717;81;21534;-79
2021/12/16 05:48:49;;;;;;;57.62;30.32;;;;;;;1.05;100.00;101749.59;1736505;81;21026;-80
2021/12/16 05:55:29;;;;;;;58.70;29.98;;;;;;;1.01;100.00;101744.95;1737035;81;21062;-79
2021/12/16 05:58:03;;;;;;;;;;;;;;;0.96;100.00;101749.74;1724289;81;21657;-80
2021/12/16 06:00:38;;;;;;;65.95;31.00;;;;;;;1.02;100.00;101752.20;1720967;82;20376;-79
2021/12/16 06:03:07;;;;;;;50.20;27.65;;;;;;;0.98;100.00;101755.25;1740276;81;21045;-79
2021/12/16 06:05:38;;;;;;;57.13;30.02;;;;;;;1.05;100.00;101754.27;1743849;80;21138;-80
2021/12/16 06:08:06;;;;;;;55.98;28.42;;;;;;;1.07;100.00;101756.38;1740055;81;21524;-79
2021/12/16 06:13:08;;;;;;;51.05;26.60;;;;;;;1.03;100.00;101753.89;1750460;81;21116;-79
2021/12/16 06:26:46;;;;;;;57.15;28.07;;;;;;;1.17;100.00;101741.67;1761993;80;21035;-79
2021/12/16 06:29:05;;;;;;;55.43;28.77;;;;;;;1.23;100.00;101735.58;1761712;80;20999;-81
2021/12/16 06:31:32;;;;;;;51.55;26.97;;;;;;;1.31;100.00;101741.87;1719892;81;21905;-80
2021/12/16 06:33:59;;;;;;;59.88;26.12;;;;;;;1.37;100.00;101741.75;1718745;82;21065;-79
2021/12/16 06:36:27;;;;;;;51.73;26.40;;;;;;;1.39;100.00;101732.31;1743481;82;21053;-79
2021/12/16 06:38:55;;;;;;;44.75;24.80;;;;;;;1.55;100.00;101737.56;1748385;80;21080;-79
2021/12/16 06:41:27;;;;;;;79.05;28.60;;;;;;;1.66;100.00;101736.06;1744300;80;21033;-82
2021/12/16 06:44:19;;;;;;;54.73;28.65;;;;;;;1.74;100.00;101734.61;1637433;84;21114;-82
2021/12/16 06:46:41;;;;;;;53.30;28.23;;;;;;;1.86;100.00;101734.80;1748420;82;21025;-80
2021/12/16 06:49:10;;;;;;;43.20;25.80;;;;;;;1.81;100.00;101739.20;1748176;81;21048;-81
2021/12/16 06:51:48;;;;;;;88.55;28.32;;;;;;;1.66;100.00;101745.48;1744474;82;21527;-80
2021/12/16 06:54:10;;;;;;;70.42;29.25;;;;;;;1.49;100.00;101741.96;1688380;84;21037;-82
2021/12/16 06:56:49;;;;;;;52.78;28.17;;;;;;;1.37;100.00;101741.75;1748188;80;21237;-82
2021/12/16 06:59:20;;;;;;;54.10;29.57;;;;;;;1.25;100.00;101741.55;1744151;80;21066;-82
2021/12/16 07:01:41;;;;;;;57.40;26.73;;;;;;;1.13;100.00;101750.30;1744609;82;21022;-82
2021/12/16 07:04:12;;;;;;;52.45;29.07;;;;;;;0.99;100.00;101747.14;1720635;81;21527;-82
2021/12/16 07:06:39;;;;;;;;;;;;;;;1.00;100.00;101751.40;1719783;83;21141;-82
2021/12/16 07:09:15;;;;;;;53.90;28.83;;;;;;;0.94;100.00;101758.30;1708999;83;21174;-82
2021/12/16 07:11:47;;;;;;;51.63;26.68;;;;;;;0.83;100.00;101764.06;1689003;83;21054;-81
2021/12/16 07:14:16;;;;;;;66.62;32.73;;;;;;;0.76;100.00;101759.91;1688996;83;21507;-81
2021/12/16 07:16:47;;;;;;;57.98;30.15;;;;;;;0.80;100.00;101762.81;1688894;83;21101;-81
2021/12/16 07:19:15;;;;;;;51.08;27.95;;;;;;;0.76;100.00;101759.91;1695679;83;21617;-82
2021/12/16 07:21:45;;;;;;;46.30;25.77;;;;;;;0.70;100.00;101768.95;1686443;83;21202;-82
2021/12/16 07:24:16;;;;;;;58.45;30.15;;;;;;;0.66;100.00;101782.25;1700983;83;21077;-80
2021/12/16 07:26:44;;;;;;;52.73;28.17;;;;;;;0.62;100.00;101780.17;1698976;83;26790;-80
2021/12/16 07:29:11;;;;;;;51.20;25.65;;;;;;;0.57;100.00;101771.71;1697015;83;21066;-81
2021/12/16 07:31:39;;;;;;;54.15;27.40;;;;;;;0.54;100.00;101780.72;1690952;83;21026;-80
2021/12/16 07:34:09;;;;;;;43.78;24.07;;;;;;;0.49;100.00;101787.64;1717087;83;21151;-82
2021/12/16 07:36:39;;;;;;;53.00;26.15;;;;;;;0.49;100.00;101790.20;1704959;83;21082;-80
2021/12/16 07:39:10;;;;;;;43.28;23.07;;;;;;;0.48;100.00;101797.92;1700712;83;21172;-81
2021/12/16 07:41:39;;;;;;;;;;;;;;;0.35;100.00;101797.23;1701380;83;21069;-84
2021/12/16 07:44:11;;;;;;;49.15;24.80;;;;;;;0.33;100.00;101795.13;1713854;83;20172;-81
2021/12/16 07:46:50;;;;;;;47.48;25.00;;;;;;;0.29;100.00;101797.71;1691591;83;21150;-80
2021/12/16 07:49:25;;;;;;;43.58;24.07;;;;;;;0.22;100.00;101799.11;1716975;83;21086;-81
2021/12/16 07:51:57;;;;;;;45.08;24.25;;;;;;;0.17;100.00;101800.45;1717901;83;21085;-80
2021/12/16 07:54:25;;;;;;;48.63;24.23;;;;;;;0.13;100.00;101805.17;1691229;83;21081;-80
2021/12/16 07:56:55;;;;;;;46.45;22.77;;;;;;;0.13;100.00;101795.80;1716107;83;21069;-81
2021/12/16 07:59:27;;;;;;;44.48;23.83;;;;;;;0.05;100.00;101795.05;1677358;83;21041;-80
2021/12/16 08:01:57;;;;;;;44.73;24.35;;;;;;;-0.03;100.00;101796.41;1717791;83;21081;-81
2021/12/16 08:04:28;;;;;;;42.05;23.20;;;;;;;-0.08;100.00;101796.90;1696028;83;21512;-80
2021/12/16 08:07:00;;;;;;;52.50;26.52;;;;;;;-0.11;100.00;101793.08;1762710;81;21029;-80
2021/12/16 08:09:27;;;;;;;51.15;25.05;;;;;;;-0.11;100.00;101794.36;1769512;80;21045;-80
2021/12/16 08:11:54;;;;;;;44.45;23.77;;;;;;;-0.06;100.00;101788.77;1769994;81;21086;-81
2021/12/16 08:14:21;;;;;;;45.52;25.05;;;;;;;-0.06;100.00;101783.66;1770852;80;20983;-81
2021/12/16 08:16:48;;;;;;;46.98;24.45;;;;;;;-0.05;100.00;101773.83;1770094;80;21080;-80
2021/12/16 08:19:15;;;;;;;44.10;25.02;;;;;;;0.06;100.00;101775.39;1769996;80;21496;-80
2021/12/16 08:21:42;;;;;;;47.80;26.10;;;;;;;0.10;100.00;101773.22;1766801;81;21030;-80
2021/12/16 08:24:16;;;;;;;47.10;23.90;;;;;;;0.13;100.00;101778.28;1686396;83;21139;-80
2021/12/16 08:26:47;;;;;;;44.53;23.45;;;;;;;0.19;100.00;101773.10;1666504;86;21050;-81
2021/12/16 08:29:14;;;;;;;42.33;22.90;;;;;;;0.22;100.00;101778.16;1658718;85;21144;-82
2021/12/16 08:31:42;;;;;;;45.25;22.93;;;;;;;0.28;100.00;101775.52;1644507;86;21039;-80
2021/12/16 08:34:10;;;;;;;40.78;23.40;;;;;;;0.30;100.00;101776.80;1686092;83;21061;-81
2021/12/16 08:36:38;;;;;;;40.23;22.55;;;;;;;0.26;100.00;101766.16;1666311;84;21165;-81
2021/12/16 08:39:08;;;;;;;42.60;22.67;;;;;;;0.22;100.00;101767.09;1685958;83;21113;-81
2021/12/16 08:41:41;;;;;;;35.68;20.92;;;;;;;0.12;100.00;101765.09;1666299;84;21578;-81
2021/12/16 08:44:09;;;;;;;36.95;21.60;;;;;;;-0.01;100.00;101763.95;1720734;82;21017;-80
2021/12/16 08:46:42;;;;;;;45.20;25.57;;;;;;;-0.05;100.00;101755.03;1686085;83;21156;-80
2021/12/16 08:49:10;;;;;;;39.73;22.07;;;;;;;-0.04;100.00;101753.73;1643614;86;21952;-81
2021/12/16 08:51:43;;;;;;;38.15;21.45;;;;;;;-0.08;100.00;101758.94;1720613;83;21063;-83
2021/12/16 08:54:10;;;;;;;37.23;20.57;;;;;;;-0.10;100.00;101759.37;1719146;82;21518;-80
2021/12/16 08:56:39;;;;;;;36.75;21.27;;;;;;;-0.16;100.00;101756.01;1685644;83;21102;-80
2021/12/16 08:59:08;;;;;;;36.58;19.50;;;;;;;-0.24;100.00;101748.02;1666125;84;21586;-80
2021/12/16 09:01:40;;;;;;;34.40;19.90;;;;;;;-0.27;100.00;101746.76;1719792;83;21131;-80
2021/12/16 09:04:07;;;;;;;32.50;18.70;;;;;;;-0.22;100.00;101743.73;1685943;83;21035;-80
2021/12/16 09:06:35;;;;;;;32.40;20.35;;;;;;;-0.17;100.00;101744.52;1648172;84;21153;-80
2021/12/16 09:09:09;;;;;;;32.98;19.55;;;;;;;-0.17;100.00;101745.79;1720923;82;21022;-80
2021/12/16 09:11:42;;;;;;;32.00;18.45;;;;;;;-0.14;100.00;101743.20;1719916;83;21597;-81
2021/12/16 09:14:05;;;;;;;36.68;20.43;;;;;;;-0.08;100.00;101741.84;1681408;83;21563;-80
2021/12/16 09:16:35;;;;;;;33.35;20.00;;;;;;;-0.09;100.00;101735.47;1666339;85;21599;-80
2021/12/16 09:19:07;;;;;;;33.18;19.85;;;;;;;-0.04;100.00;101731.95;1658484;85;21097;-80
2021/12/16 09:21:36;;;;;;;;;;;;;;;-0.07;100.00;101729.45;1668969;84;21030;-80
2021/12/16 09:24:07;;;;;;;35.03;19.05;;;;;;;-0.10;100.00;101729.48;1666297;86;20480;-80
2021/12/16 09:26:34;;;;;;;33.17;19.30;;;;;;;-0.07;100.00;101731.16;1721194;83;21110;-81
2021/12/16 09:29:01;;;;;;;29.32;19.40;;;;;;;-0.01;100.00;101731.09;1685965;83;21065;-80
2021/12/16 09:31:29;;;;;;;33.92;18.95;;;;;;;0.13;100.00;101725.35;1663403;84;20987;-80
2021/12/16 09:34:06;;;;;;;33.73;17.65;;;;;;;0.18;100.00;101722.73;1678671;84;21105;-80
2021/12/16 09:36:27;;;;;;;31.93;20.12;;;;;;;0.24;100.00;101713.67;1652962;86;21564;-81
2021/12/16 09:38:57;;;;;;;28.98;17.50;;;;;;;0.29;100.00;101718.28;1678552;84;21147;-80
2021/12/16 09:41:27;;;;;;;29.67;18.85;;;;;;;0.40;100.00;101720.68;1653989;85;21018;-81
2021/12/16 09:43:58;;;;;;;33.85;19.75;;;;;;;0.43;100.00;101713.41;1678912;85;22291;-80
2021/12/16 09:46:29;;;;;;;30.85;17.73;;;;;;;0.49;100.00;101709.46;1680030;84;21063;-80
2021/12/16 09:48:56;;;;;;;25.35;17.52;;;;;;;0.60;100.00;101707.55;1656756;85;21015;-80
2021/12/16 09:51:27;;;;;;;27.65;18.07;;;;;;;0.61;100.00;101705.86;1713444;82;21126;-80
2021/12/16 09:53:58;;;;;;;;;;;;;;;0.57;100.00;101701.22;1658291;84;21093;-82
2021/12/16 09:56:28;;;;;;;24.60;16.35;;;;;;;0.55;100.00;101700.39;1655199;85;20187;-79
2021/12/16 09:59:01;;;;;;;28.12;18.15;;;;;;;0.55;100.00;101696.55;1646698;86;21027;-79
2021/12/16 10:01:30;;;;;;;29.12;19.15;;;;;;;0.54;100.00;101698.69;1658987;84;21038;-80
2021/12/16 10:04:05;;;;;;;26.95;18.77;;;;;;;0.56;100.00;101693.11;1653747;86;21387;-80
2021/12/16 10:06:34;;;;;;;;;;;;;;;0.62;100.00;101679.36;1661480;85;21156;-81
2021/12/16 10:09:05;;;;;;;27.87;17.55;;;;;;;0.61;100.00;101687.47;1630743;87;20475;-79
2021/12/16 10:11:35;;;;;;;27.62;17.05;;;;;;;0.42;100.00;101669.42;1682439;83;21570;-80
2021/12/16 10:19:27;;;;;;;24.47;16.97;;;;;;;0.01;100.00;101665.77;1644480;86;21086;-80
2021/12/16 10:22:00;;;;;;;26.27;18.95;;;;;;;-0.07;100.00;101668.00;1678939;84;21689;-81
2021/12/16 10:24:32;;;;;;;25.95;18.80;;;;;;;-0.08;100.00;101661.18;1655560;85;21003;-80
2021/12/16 10:27:17;;;;;;;25.43;17.52;;;;;;;-0.02;100.00;101659.81;1654909;84;36527;-80
2021/12/16 10:30:06;;;;;;;28.38;18.60;;;;;;;0.01;100.00;101658.08;1648556;85;22016;-80
2021/12/16 10:32:41;;;;;;;26.07;17.12;;;;;;;-0.02;100.00;101654.69;1687069;83;21018;-81
2021/12/16 10:35:29;;;;;;;26.95;17.73;;;;;;;-0.11;100.00;101650.14;1674747;85;21014;-80
2021/12/16 10:38:01;;;;;;;27.93;19.20;;;;;;;-0.22;100.00;101642.61;1689269;83;21578;-80
2021/12/16 10:40:43;;;;;;;29.05;19.37;;;;;;;-0.27;100.00;101648.20;1676080;84;21144;-83
2021/12/16 10:43:16;;;;;;;29.07;20.75;;;;;;;-0.36;100.00;101642.34;1665303;84;21105;-80
2021/12/16 10:45:48;;;;;;;28.15;19.35;;;;;;;-0.43;100.00;101640.72;1674410;84;21211;-83
2021/12/16 10:48:30;;;;;;;27.37;19.07;;;;;;;-0.44;100.00;101639.47;1691325;83;21065;-81
2021/12/16 10:51:19;;;;;;;32.10;20.90;;;;;;;-0.45;100.00;101637.36;1675962;84;21080;-81
2021/12/16 10:54:07;;;;;;;30.02;19.90;;;;;;;-0.47;100.00;101633.97;1688407;83;21076;-82
2021/12/16 10:56:39;;;;;;;28.20;19.85;;;;;;;-0.44;100.00;101627.95;1676078;84;21151;-82
2021/12/16 10:59:26;;;;;;;28.50;20.43;;;;;;;-0.30;100.00;101622.66;1665350;84;21064;-81
2021/12/16 11:02:01;;;;;;;27.90;20.50;;;;;;;-0.16;100.00;101616.47;1675636;85;21089;-81
2021/12/16 11:04:49;;;;;;;30.62;20.25;;;;;;;-0.11;100.00;101614.29;1665394;84;21081;-81
2021/12/16 11:07:32;;;;;;;32.95;22.10;;;;;;;-0.13;100.00;101618.16;1674332;85;21022;-81
2021/12/16 11:10:16;;;;;;;30.52;22.95;;;;;;;-0.15;100.00;101610.92;1665255;83;21776;-81
2021/12/16 11:12:51;;;;;;;29.10;21.12;;;;;;;-0.22;100.00;101601.64;1649226;85;21092;-81
2021/12/16 11:15:38;;;;;;;33.18;22.87;;;;;;;-0.16;100.00;101603.66;1691232;83;21590;-80
2021/12/16 11:18:20;;;;;;;39.63;26.60;;;;;;;-0.03;100.00;101604.33;1674064;84;21772;-81
2021/12/16 11:20:52;;;;;;;35.25;25.70;;;;;;;0.12;100.00;101609.66;1685864;83;21061;-81
2021/12/16 11:23:32;;;;;;;35.70;25.17;;;;;;;0.15;100.00;101604.92;1676381;85;21135;-81
2021/12/16 11:26:23;;;;;;;33.92;23.80;;;;;;;0.14;100.00;101605.79;1691477;83;21081;-82
2021/12/16 11:28:54;;;;;;;32.35;23.65;;;;;;;0.20;100.00;101607.41;1690811;84;21113;-81
2021/12/16 11:31:32;;;;;;;32.35;22.62;;;;;;;0.20;100.00;101608.25;1691583;83;21041;-81
2021/12/16 11:34:09;;;;;;;32.53;22.10;;;;;;;0.16;100.00;101609.18;1649136;86;22174;-81
2021/12/16 11:36:41;;;;;;;36.10;21.95;;;;;;;0.03;100.00;101602.12;1689152;83;21150;-81
2021/12/16 11:39:17;;;;;;;41.42;22.50;;;;;;;-0.02;100.00;101609.87;1656744;85;21085;-81
2021/12/16 11:41:57;;;;;;;35.17;23.20;;;;;;;0.09;100.00;101609.70;1635431;86;21096;-81
2021/12/16 11:44:29;;;;;;;40.60;22.95;;;;;;;0.24;100.00;101609.91;1661371;85;21073;-81
2021/12/16 11:47:19;;;;;;;40.38;21.70;;;;;;;0.31;100.00;101603.81;1660050;85;21109;-82
2021/12/16 11:49:54;;;;;;;33.20;21.45;;;;;;;0.45;100.00;101598.88;1688358;83;21132;-82
2021/12/16 11:52:29;;;;;;;38.92;20.35;;;;;;;0.52;100.00;101584.25;1722215;83;20949;-81
2021/12/16 11:55:11;;;;;;;30.25;18.85;;;;;;;0.56;100.00;101588.02;1723493;81;21572;-81
2021/12/16 11:57:48;;;;;;;;;;;;;;;0.46;100.00;101586.06;1664652;84;21140;-81
2021/12/16 12:00:20;;;;;;;31.70;17.45;;;;;;;0.25;100.00;101582.55;1645291;85;20553;-83
2021/12/16 12:02:51;;;;;;;28.38;16.35;;;;;;;-0.01;100.00;101573.59;1651353;85;21080;-81
2021/12/16 12:05:33;;;;;;;30.85;17.37;;;;;;;-0.08;100.00;101570.27;1661133;85;21054;-81
2021/12/16 12:08:08;;;;;;;32.67;18.80;;;;;;;-0.10;100.00;101569.89;1726511;81;21586;-82
2021/12/16 12:11:17;;;;;;;30.50;17.95;;;;;;;0.03;100.00;101574.39;1685638;83;21038;-81
2021/12/16 12:13:49;;;;;;;32.23;17.87;;;;;;;0.18;100.00;101576.71;1688584;83;21043;-81
2021/12/16 12:16:27;;;;;;;27.93;17.57;;;;;;;0.26;100.00;101568.46;1685913;83;21142;-80
2021/12/16 12:19:01;;;;;;;34.45;19.12;;;;;;;0.30;100.00;101564.96;1686127;84;21003;-81
2021/12/16 12:21:50;;;;;;;27.17;16.93;;;;;;;0.30;100.00;101564.12;1660207;83;21093;-81
2021/12/16 12:24:25;;;;;;;34.35;18.80;;;;;;;0.38;100.00;101558.86;1688104;85;20979;-81
2021/12/16 12:27:12;;;;;;;32.53;18.42;;;;;;;0.58;100.00;101550.81;1686286;83;21101;-82
2021/12/16 12:29:45;;;;;;;29.45;16.65;;;;;;;0.67;100.00;101544.69;1687898;83;21461;-82
2021/12/16 12:32:30;;;;;;;30.65;16.48;;;;;;;0.68;100.00;101538.69;1725237;81;22176;-82
2021/12/16 12:35:13;;;;;;;26.75;14.30;;;;;;;0.58;100.00;101532.45;1686113;83;21089;-81
2021/12/16 12:37:45;;;;;;;23.65;14.23;;;;;;;0.43;100.00;101536.58;1674667;83;22049;-81
2021/12/16 12:40:26;;;;;;;24.92;14.98;;;;;;;0.26;100.00;101539.00;1697677;82;26832;-81
2021/12/16 12:42:56;;;;;;;28.30;15.03;;;;;;;0.10;100.00;101533.72;1741746;81;21837;-81
2021/12/16 12:45:31;;;;;;;30.02;16.20;;;;;;;-0.02;100.00;101529.65;1738679;79;21038;-81
2021/12/16 12:48:17;;;;;;;31.62;15.28;;;;;;;-0.20;100.00;101525.67;1756611;80;21538;-83
2021/12/16 12:50:59;;;;;;;25.55;13.78;;;;;;;-0.20;100.00;101529.52;1767908;80;21112;-82
2021/12/16 12:53:37;;;;;;;24.00;13.45;;;;;;;-0.05;100.00;101521.59;1740348;80;21034;-82
2021/12/16 12:56:16;;;;;;;25.23;12.70;;;;;;;0.12;100.00;101525.59;1740342;80;21842;-82
2021/12/16 12:59:07;;;;;;;23.32;12.78;;;;;;;0.14;100.00;101530.22;1727971;81;21007;-83
2021/12/16 13:01:49;;;;;;;26.85;14.30;;;;;;;0.11;100.00;101525.17;1747766;80;21542;-81
2021/12/16 13:04:27;;;;;;;31.33;13.65;;;;;;;0.12;100.00;101523.03;1751899;80;21681;-82
2021/12/16 13:07:05;;;;;;;24.20;13.38;;;;;;;0.18;100.00;101522.91;1752646;81;21110;-82
2021/12/16 13:09:54;;;;;;;30.75;14.03;;;;;;;0.19;100.00;101518.63;1745161;80;21695;-81
2021/12/16 13:12:46;;;;;;;59.70;14.75;;;;;;;0.23;100.00;101523.67;1710534;80;21465;-83
2021/12/16 13:23:43;;;;;;;39.33;14.50;;;;;;;0.29;100.00;101520.98;1689200;81;21118;-83
2021/12/16 13:26:34;;;;;;;34.90;14.05;;;;;;;0.25;100.00;101522.34;1719629;81;21048;-82
2021/12/16 13:29:38;;;;;;;32.80;13.55;;;;;;;0.35;100.00;101518.77;1694187;81;21274;-81
2021/12/16 13:32:14;;;;;;;33.50;14.30;;;;;;;0.33;100.00;101517.94;1761396;80;21603;-83
2021/12/16 13:35:10;;;;;;;36.60;16.50;;;;;;;0.22;100.00;101513.01;1694979;80;21022;-82
2021/12/16 13:37:35;;;;;;;58.05;17.35;;;;;;;0.28;100.00;101514.17;1758165;81;21137;-82
2021/12/16 13:40:16;;;;;;;37.90;15.55;;;;;;;0.28;100.00;101512.89;1735252;81;21078;-84
2021/12/16 13:43:18;;;;;;;41.00;14.18;;;;;;;0.42;100.00;101513.93;1735261;81;21101;-83
2021/12/16 13:46:09;;;;;;;30.40;12.70;;;;;;;0.41;100.00;101510.12;1736734;81;21121;-83
2021/12/16 14:03:13;;;;;;;22.95;10.50;;;;;;;0.76;100.00;101509.91;1627691;86;21080;-83
2021/12/16 14:06:11;;;;;;;16.95;10.40;;;;;;;0.57;100.00;101507.69;1623221;86;21216;-84
2021/12/16 14:08:35;;;;;;;18.60;10.10;;;;;;;0.38;100.00;101511.03;1584635;89;21328;-84
2021/12/16 14:25:54;;;;;;;28.62;12.98;;;;;;;0.13;100.00;101508.03;1595086;88;21119;-82
2021/12/16 14:42:15;;;;;;;28.62;16.25;;;;;;;0.16;100.00;101504.16;1593526;88;21623;-85
2021/12/16 14:47:29;;;;;;;27.40;16.48;;;;;;;-0.19;100.00;101496.20;1592388;89;21218;-82
2021/12/16 14:49:50;;;;;;;27.02;15.48;;;;;;;-0.40;100.00;101494.81;1596605;88;21157;-84
2021/12/16 14:52:22;;;;;;;24.77;14.87;;;;;;;-0.57;100.00;101495.50;1572913;90;21109;-84
2021/12/16 14:54:54;;;;;;;25.55;14.90;;;;;;;-0.71;100.00;101492.71;1555866;90;21153;-84